createdAt,value
2016-12-21T00:00:19.104Z,0
2016-12-21T00:01:28.891Z,0
2016-12-21T00:02:38.505Z,0
2016-12-21T00:03:48.320Z,0
2016-12-21T00:04:58.131Z,0
2016-12-21T00:06:07.920Z,0
2016-12-21T00:07:17.577Z,0
2016-12-21T00:08:27.115Z,0
2016-12-21T00:09:36.908Z,0
2016-12-21T00:10:46.903Z,0
2016-12-21T00:11:56.733Z,0
2016-12-21T00:13:06.638Z,0
2016-12-21T00:14:16.413Z,0
2016-12-21T00:15:26.192Z,0
2016-12-21T00:16:35.657Z,0
2016-12-21T00:17:45.445Z,0
2016-12-21T00:18:55.273Z,0
2016-12-21T00:20:05.149Z,0
2016-12-21T00:21:14.956Z,0
2016-12-21T00:22:24.224Z,0
2016-12-21T00:23:34.110Z,0
2016-12-21T00:24:43.949Z,0
2016-12-21T00:25:53.733Z,0
2016-12-21T00:27:03.523Z,0
2016-12-21T00:28:13.004Z,0
2016-12-21T00:29:22.816Z,0
2016-12-21T00:30:32.761Z,0
2016-12-21T00:31:42.574Z,0
2016-12-21T00:32:52.066Z,0
2016-12-21T00:34:02.024Z,0
2016-12-21T00:35:11.840Z,0
2016-12-21T00:36:21.618Z,0
2016-12-21T00:37:31.088Z,0
2016-12-21T00:38:40.584Z,0
2016-12-21T00:39:50.393Z,0
2016-12-21T00:41:00.209Z,0
2016-12-21T00:42:10.017Z,0
2016-12-21T00:43:19.801Z,0
2016-12-21T00:44:29.581Z,0
2016-12-21T00:45:39.140Z,0
2016-12-21T00:46:48.643Z,0
2016-12-21T00:47:57.810Z,0
2016-12-21T00:49:07.327Z,0
2016-12-21T00:50:16.494Z,0
2016-12-21T00:51:25.969Z,0
2016-12-21T00:52:35.738Z,0
2016-12-21T00:53:45.298Z,0
2016-12-21T00:54:55.218Z,0
2016-12-21T00:56:04.817Z,0
2016-12-21T00:57:14.607Z,0
2016-12-21T00:58:24.408Z,0
2016-12-21T00:59:33.931Z,0
2016-12-21T01:00:43.710Z,0
2016-12-21T01:01:53.188Z,0
2016-12-21T01:03:02.979Z,0
2016-12-21T01:04:12.768Z,0
2016-12-21T01:05:22.234Z,0
2016-12-21T01:06:31.919Z,0
2016-12-21T01:07:41.392Z,0
2016-12-21T01:08:51.043Z,0
2016-12-21T01:10:00.835Z,0
2016-12-21T01:11:10.616Z,0
2016-12-21T01:12:20.111Z,0
2016-12-21T01:13:29.613Z,0
2016-12-21T01:14:38.778Z,0
2016-12-21T01:15:48.634Z,0
2016-12-21T01:16:58.417Z,0
2016-12-21T01:18:07.934Z,0
2016-12-21T01:19:17.147Z,0
2016-12-21T01:20:26.640Z,0
2016-12-21T01:21:36.148Z,0
2016-12-21T01:22:45.931Z,0
2016-12-21T01:23:55.146Z,0
2016-12-21T01:25:04.628Z,0
2016-12-21T01:26:14.436Z,0
2016-12-21T01:27:24.225Z,0
2016-12-21T01:28:33.773Z,0
2016-12-21T01:29:43.560Z,0
2016-12-21T01:30:53.349Z,0
2016-12-21T01:32:03.150Z,0
2016-12-21T01:33:12.941Z,0
2016-12-21T01:34:22.715Z,0
2016-12-21T01:35:32.177Z,0
2016-12-21T01:36:41.962Z,0
2016-12-21T01:37:51.510Z,0
2016-12-21T01:39:01.377Z,0
2016-12-21T01:40:11.208Z,0
2016-12-21T01:41:21.047Z,0
2016-12-21T01:42:30.837Z,0
2016-12-21T01:43:40.621Z,0
2016-12-21T01:44:50.470Z,0
2016-12-21T01:45:59.933Z,0
2016-12-21T01:47:09.456Z,0
2016-12-21T01:48:19.242Z,0
2016-12-21T01:49:29.041Z,0
2016-12-21T01:50:38.540Z,0
2016-12-21T01:51:48.403Z,0
2016-12-21T01:52:58.202Z,0
2016-12-21T01:54:07.720Z,0
2016-12-21T01:55:17.183Z,0
2016-12-21T01:56:26.752Z,0
2016-12-21T01:57:36.321Z,0
2016-12-21T01:58:46.168Z,0
2016-12-21T01:59:55.954Z,0
2016-12-21T02:01:05.432Z,0
2016-12-21T02:02:15.210Z,0
2016-12-21T02:03:24.988Z,0
2016-12-21T02:04:34.192Z,0
2016-12-21T02:05:43.401Z,0
2016-12-21T02:06:52.600Z,0
2016-12-21T02:08:02.430Z,0
2016-12-21T02:09:12.307Z,0
2016-12-21T02:10:21.807Z,0
2016-12-21T02:11:31.028Z,0
2016-12-21T02:12:40.806Z,0
2016-12-21T02:13:50.604Z,0
2016-12-21T02:14:59.782Z,0
2016-12-21T02:16:09.295Z,0
2016-12-21T02:17:18.463Z,0
2016-12-21T02:18:28.230Z,0
2016-12-21T02:19:38.028Z,0
2016-12-21T02:20:47.500Z,0
2016-12-21T02:21:57.007Z,0
2016-12-21T02:23:06.798Z,0
2016-12-21T02:24:16.604Z,0
2016-12-21T02:25:26.405Z,0
2016-12-21T02:26:36.468Z,0
2016-12-21T02:27:46.285Z,0
2016-12-21T02:28:56.181Z,0
2016-12-21T02:30:05.647Z,0
2016-12-21T02:31:15.448Z,0
2016-12-21T02:32:25.336Z,0
2016-12-21T02:33:34.821Z,0
2016-12-21T02:34:44.645Z,0
2016-12-21T02:35:54.267Z,0
2016-12-21T02:37:04.088Z,0
2016-12-21T02:38:13.622Z,0
2016-12-21T02:39:23.523Z,0
2016-12-21T02:40:32.997Z,0
2016-12-21T02:41:42.184Z,0
2016-12-21T02:42:51.980Z,0
2016-12-21T02:44:01.784Z,0
2016-12-21T02:45:11.605Z,0
2016-12-21T02:46:21.453Z,0
2016-12-21T02:47:31.255Z,0
2016-12-21T02:48:41.036Z,0
2016-12-21T02:49:50.803Z,0
2016-12-21T02:51:00.598Z,0
2016-12-21T02:52:10.089Z,0
2016-12-21T02:53:19.900Z,0
2016-12-21T02:54:29.734Z,0
2016-12-21T02:55:39.222Z,0
2016-12-21T02:56:48.736Z,0
2016-12-21T02:57:58.574Z,0
2016-12-21T02:59:07.761Z,0
2016-12-21T03:00:17.588Z,0
2016-12-21T03:01:27.477Z,0
2016-12-21T03:02:36.645Z,0
2016-12-21T03:03:46.483Z,0
2016-12-21T03:04:55.978Z,0
2016-12-21T03:06:05.812Z,0
2016-12-21T03:07:15.278Z,0
2016-12-21T03:08:24.747Z,0
2016-12-21T03:09:34.530Z,0
2016-12-21T03:10:43.696Z,0
2016-12-21T03:11:53.172Z,0
2016-12-21T03:13:02.691Z,0
2016-12-21T03:14:12.213Z,0
2016-12-21T03:15:21.813Z,0
2016-12-21T03:16:31.306Z,0
2016-12-21T03:17:40.790Z,0
2016-12-21T03:18:50.670Z,0
2016-12-21T03:20:00.148Z,0
2016-12-21T03:21:09.781Z,0
2016-12-21T03:22:18.970Z,0
2016-12-21T03:23:28.535Z,0
2016-12-21T03:24:37.707Z,0
2016-12-21T03:25:47.511Z,0
2016-12-21T03:26:57.311Z,0
2016-12-21T03:28:06.844Z,0
2016-12-21T03:29:16.657Z,0
2016-12-21T03:30:26.142Z,0
2016-12-21T03:31:35.683Z,0
2016-12-21T03:32:45.588Z,0
2016-12-21T03:33:55.420Z,0
2016-12-21T03:35:04.927Z,0
2016-12-21T03:36:14.816Z,0
2016-12-21T03:37:24.676Z,0
2016-12-21T03:38:34.461Z,0
2016-12-21T03:39:44.284Z,0
2016-12-21T03:40:54.087Z,0
2016-12-21T03:42:03.558Z,0
2016-12-21T03:43:13.336Z,0
2016-12-21T03:44:22.830Z,0
2016-12-21T03:45:32.368Z,0
2016-12-21T03:46:41.846Z,0
2016-12-21T03:47:51.764Z,0
2016-12-21T03:49:01.556Z,0
2016-12-21T03:50:11.048Z,0
2016-12-21T03:51:20.527Z,0
2016-12-21T03:52:30.034Z,0
2016-12-21T03:53:39.551Z,0
2016-12-21T03:54:49.134Z,0
2016-12-21T03:55:58.902Z,0
2016-12-21T03:57:08.703Z,0
2016-12-21T03:58:18.506Z,0
2016-12-21T03:59:27.683Z,0
2016-12-21T04:00:37.189Z,0
2016-12-21T04:01:47.119Z,0
2016-12-21T04:02:56.601Z,0
2016-12-21T04:04:06.393Z,0
2016-12-21T04:05:15.860Z,0
2016-12-21T04:06:25.343Z,0
2016-12-21T04:07:34.838Z,0
2016-12-21T04:08:44.325Z,0
2016-12-21T04:09:54.176Z,0
2016-12-21T04:11:03.677Z,0
2016-12-21T04:12:12.858Z,0
2016-12-21T04:13:22.637Z,0
2016-12-21T04:14:32.453Z,0
2016-12-21T04:15:42.230Z,0
2016-12-21T04:16:52.030Z,0
2016-12-21T04:18:01.815Z,0
2016-12-21T04:19:11.600Z,0
2016-12-21T04:20:21.375Z,0
2016-12-21T04:21:31.152Z,0
2016-12-21T04:22:41.004Z,0
2016-12-21T04:23:50.483Z,0
2016-12-21T04:25:00.296Z,0
2016-12-21T04:26:09.770Z,0
2016-12-21T04:27:19.290Z,0
2016-12-21T04:28:28.787Z,0
2016-12-21T04:29:38.659Z,0
2016-12-21T04:30:48.443Z,0
2016-12-21T04:31:58.265Z,0
2016-12-21T04:33:07.735Z,0
2016-12-21T04:34:17.521Z,0
2016-12-21T04:35:27.009Z,0
2016-12-21T04:36:36.824Z,0
2016-12-21T04:37:46.342Z,0
2016-12-21T04:38:55.884Z,0
2016-12-21T04:40:05.743Z,0
2016-12-21T04:41:15.215Z,0
2016-12-21T04:42:24.686Z,0
2016-12-21T04:43:34.478Z,0
2016-12-21T04:44:44.267Z,0
2016-12-21T04:45:54.091Z,0
2016-12-21T04:47:03.582Z,0
2016-12-21T04:48:13.397Z,0
2016-12-21T04:49:23.219Z,0
2016-12-21T04:50:33.048Z,0
2016-12-21T04:51:42.841Z,0
2016-12-21T04:52:52.314Z,0
2016-12-21T04:54:01.812Z,0
2016-12-21T04:55:11.618Z,0
2016-12-21T04:56:21.102Z,0
2016-12-21T04:57:30.584Z,0
2016-12-21T04:58:40.368Z,0
2016-12-21T04:59:50.202Z,0
2016-12-21T05:01:00.022Z,0
2016-12-21T05:02:09.906Z,0
2016-12-21T05:03:19.705Z,0
2016-12-21T05:04:29.225Z,0
2016-12-21T05:05:38.714Z,0
2016-12-21T05:06:48.214Z,0
2016-12-21T05:07:57.990Z,0
2016-12-21T05:09:06.528Z,0
2016-12-21T05:10:16.019Z,0
2016-12-21T05:11:25.811Z,0
2016-12-21T05:12:35.611Z,0
2016-12-21T05:13:45.094Z,0
2016-12-21T05:14:54.893Z,0
2016-12-21T05:16:04.055Z,0
2016-12-21T05:17:13.524Z,0
2016-12-21T05:18:23.405Z,0
2016-12-21T05:19:32.889Z,0
2016-12-21T05:20:42.714Z,0
2016-12-21T05:21:52.254Z,0
2016-12-21T05:23:02.033Z,0
2016-12-21T05:24:11.858Z,0
2016-12-21T05:25:21.360Z,0
2016-12-21T05:26:31.292Z,0
2016-12-21T05:27:41.072Z,0
2016-12-21T05:28:50.548Z,0
2016-12-21T05:30:00.073Z,0
2016-12-21T05:31:09.236Z,0
2016-12-21T05:32:19.046Z,0
2016-12-21T05:33:28.212Z,0
2016-12-21T05:34:37.385Z,0
2016-12-21T05:35:47.163Z,0
2016-12-21T05:36:56.939Z,0
2016-12-21T05:38:06.733Z,0
2016-12-21T05:39:16.509Z,0
2016-12-21T05:40:26.003Z,0
2016-12-21T05:41:35.897Z,0
2016-12-21T05:42:45.419Z,0
2016-12-21T05:43:55.204Z,0
2016-12-21T05:45:04.743Z,0
2016-12-21T05:46:14.574Z,0
2016-12-21T05:47:24.374Z,0
2016-12-21T05:48:33.562Z,0
2016-12-21T05:49:43.042Z,0
2016-12-21T05:50:52.856Z,0
2016-12-21T05:52:02.340Z,0
2016-12-21T05:53:12.101Z,0
2016-12-21T05:54:21.882Z,0
2016-12-21T05:55:31.656Z,0
2016-12-21T05:56:40.835Z,0
2016-12-21T05:57:50.333Z,0
2016-12-21T05:59:00.235Z,0
2016-12-21T06:00:09.547Z,0
2016-12-21T06:01:19.373Z,0
2016-12-21T06:02:29.216Z,0
2016-12-21T06:03:38.398Z,0
2016-12-21T06:04:48.238Z,0
2016-12-21T06:05:58.045Z,0
2016-12-21T06:07:07.530Z,0
2016-12-21T06:08:02.592Z,0
2016-12-21T06:09:12.393Z,0
2016-12-21T06:10:21.876Z,0
2016-12-21T06:11:30.745Z,0
2016-12-21T06:12:40.212Z,0
2016-12-21T06:13:50.043Z,0
2016-12-21T06:14:59.529Z,0
2016-12-21T06:16:09.414Z,0
2016-12-21T06:17:19.263Z,0
2016-12-21T06:18:28.746Z,0
2016-12-21T06:19:38.541Z,0
2016-12-21T06:20:48.502Z,0
2016-12-21T06:21:57.996Z,0
2016-12-21T06:23:07.771Z,0
2016-12-21T06:24:17.574Z,0
2016-12-21T06:25:27.088Z,0
2016-12-21T06:26:36.572Z,0
2016-12-21T06:27:46.394Z,0
2016-12-21T06:28:55.924Z,0
2016-12-21T06:30:05.791Z,0
2016-12-21T06:31:15.631Z,0
2016-12-21T06:32:25.108Z,0
2016-12-21T06:33:34.281Z,0
2016-12-21T06:34:43.781Z,0
2016-12-21T06:35:53.682Z,0
2016-12-21T06:37:03.199Z,0
2016-12-21T06:38:12.699Z,0
2016-12-21T06:39:21.859Z,0
2016-12-21T06:40:31.745Z,0
2016-12-21T06:41:40.925Z,0
2016-12-21T06:42:50.731Z,0
2016-12-21T06:43:59.892Z,0
2016-12-21T06:45:09.359Z,0
2016-12-21T06:46:18.962Z,0
2016-12-21T06:47:28.133Z,0
2016-12-21T06:48:37.912Z,0
2016-12-21T06:49:47.689Z,0
2016-12-21T06:50:57.174Z,0
2016-12-21T06:52:06.732Z,0
2016-12-21T06:53:16.232Z,0
2016-12-21T06:54:25.995Z,0
2016-12-21T06:55:35.151Z,0
2016-12-21T06:56:44.935Z,0
2016-12-21T06:57:54.424Z,0
2016-12-21T06:59:04.205Z,0
2016-12-21T07:00:14.011Z,0
2016-12-21T07:01:23.921Z,0
2016-12-21T07:02:33.094Z,0
2016-12-21T07:03:42.978Z,0
2016-12-21T07:04:52.851Z,5
2016-12-21T07:06:02.354Z,5
2016-12-21T07:07:12.159Z,5
2016-12-21T07:08:22.120Z,5
2016-12-21T07:09:31.913Z,5
2016-12-21T07:10:41.395Z,5
2016-12-21T07:11:51.201Z,10
2016-12-21T07:13:01.054Z,10
2016-12-21T07:14:10.839Z,10
2016-12-21T07:15:20.658Z,10
2016-12-21T07:16:29.874Z,15
2016-12-21T07:17:39.418Z,15
2016-12-21T07:18:49.217Z,15
2016-12-21T07:19:58.999Z,20
2016-12-21T07:21:08.479Z,20
2016-12-21T07:22:17.681Z,20
2016-12-21T07:23:27.462Z,25
2016-12-21T07:24:37.311Z,25
2016-12-21T07:25:47.091Z,25
2016-12-21T07:26:56.882Z,30
2016-12-21T07:28:06.689Z,30
2016-12-21T07:29:16.590Z,35
2016-12-21T07:30:26.399Z,35
2016-12-21T07:31:36.230Z,40
2016-12-21T07:32:45.729Z,40
2016-12-21T07:33:55.506Z,45
2016-12-21T07:35:05.096Z,45
2016-12-21T07:36:15.011Z,50
2016-12-21T07:37:24.200Z,55
2016-12-21T07:38:33.670Z,55
2016-12-21T07:39:43.216Z,60
2016-12-21T07:40:53.041Z,60
2016-12-21T07:42:02.516Z,65
2016-12-21T07:43:12.314Z,70
2016-12-21T07:44:22.091Z,70
2016-12-21T07:45:31.590Z,75
2016-12-21T07:46:41.400Z,75
2016-12-21T07:47:50.883Z,80
2016-12-21T07:49:00.672Z,80
2016-12-21T07:50:10.158Z,85
2016-12-21T07:51:20.072Z,85
2016-12-21T07:52:29.864Z,90
2016-12-21T07:53:39.347Z,90
2016-12-21T07:54:48.865Z,95
2016-12-21T07:55:58.694Z,100
2016-12-21T07:57:08.471Z,105
2016-12-21T07:58:18.263Z,110
2016-12-21T07:59:28.052Z,110
2016-12-21T08:00:37.543Z,120
2016-12-21T08:01:47.015Z,125
2016-12-21T08:02:56.836Z,130
2016-12-21T08:04:06.628Z,130
2016-12-21T08:05:16.429Z,135
2016-12-21T08:06:25.902Z,140
2016-12-21T08:07:35.710Z,140
2016-12-21T08:08:45.214Z,145
2016-12-21T08:09:55.048Z,145
2016-12-21T08:11:04.577Z,150
2016-12-21T08:12:14.386Z,160
2016-12-21T08:13:23.877Z,165
2016-12-21T08:14:33.678Z,165
2016-12-21T08:15:43.169Z,170
2016-12-21T08:16:52.025Z,180
2016-12-21T08:18:01.836Z,185
2016-12-21T08:19:11.609Z,185
2016-12-21T08:20:21.620Z,185
2016-12-21T08:21:31.103Z,190
2016-12-21T08:22:40.900Z,195
2016-12-21T08:23:50.087Z,205
2016-12-21T08:24:59.592Z,210
2016-12-21T08:26:09.409Z,210
2016-12-21T08:27:19.334Z,215
2016-12-21T08:28:29.162Z,220
2016-12-21T08:29:38.709Z,230
2016-12-21T08:30:48.187Z,225
2016-12-21T08:31:58.003Z,225
2016-12-21T08:33:07.497Z,230
2016-12-21T08:34:17.475Z,245
2016-12-21T08:35:27.260Z,250
2016-12-21T08:36:36.894Z,245
2016-12-21T08:37:46.376Z,245
2016-12-21T08:38:55.589Z,255
2016-12-21T08:40:05.066Z,270
2016-12-21T08:41:14.532Z,290
2016-12-21T08:42:24.020Z,305
2016-12-21T08:43:33.799Z,305
2016-12-21T08:44:43.566Z,305
2016-12-21T08:45:52.734Z,315
2016-12-21T08:47:02.556Z,315
2016-12-21T08:48:12.405Z,280
2016-12-21T08:49:22.253Z,275
2016-12-21T08:50:31.429Z,305
2016-12-21T08:51:40.920Z,325
2016-12-21T08:52:50.138Z,345
2016-12-21T08:53:59.952Z,365
2016-12-21T08:55:09.286Z,315
2016-12-21T08:56:18.786Z,270
2016-12-21T08:57:28.639Z,315
2016-12-21T08:58:38.109Z,310
2016-12-21T08:59:47.837Z,325
2016-12-21T09:00:57.731Z,315
2016-12-21T09:02:07.332Z,320
2016-12-21T09:03:16.809Z,315
2016-12-21T09:04:25.982Z,305
2016-12-21T09:05:35.474Z,315
2016-12-21T09:06:45.259Z,320
2016-12-21T09:07:54.900Z,325
2016-12-21T09:09:04.703Z,325
2016-12-21T09:10:13.896Z,330
2016-12-21T09:11:23.692Z,335
2016-12-21T09:12:33.500Z,340
2016-12-21T09:13:43.288Z,340
2016-12-21T09:14:52.857Z,340
2016-12-21T09:16:02.659Z,340
2016-12-21T09:17:12.506Z,340
2016-12-21T09:18:22.324Z,345
2016-12-21T09:19:32.115Z,345
2016-12-21T09:20:41.954Z,345
2016-12-21T09:21:51.440Z,350
2016-12-21T09:23:00.947Z,355
2016-12-21T09:24:10.791Z,350
2016-12-21T09:25:20.563Z,350
2016-12-21T09:26:30.122Z,350
2016-12-21T09:27:39.742Z,355
2016-12-21T09:28:49.232Z,360
2016-12-21T09:29:58.767Z,365
2016-12-21T09:31:08.262Z,370
2016-12-21T09:32:17.831Z,375
2016-12-21T09:33:27.315Z,375
2016-12-21T09:34:36.869Z,380
2016-12-21T09:35:46.404Z,380
2016-12-21T09:36:56.285Z,385
2016-12-21T09:38:06.105Z,390
2016-12-21T09:39:15.905Z,395
2016-12-21T09:40:25.717Z,395
2016-12-21T09:41:35.203Z,390
2016-12-21T09:42:44.692Z,395
2016-12-21T09:43:54.607Z,395
2016-12-21T09:45:04.427Z,395
2016-12-21T09:46:14.224Z,395
2016-12-21T09:47:23.732Z,405
2016-12-21T09:48:33.559Z,405
2016-12-21T09:49:43.364Z,410
2016-12-21T09:50:53.216Z,420
2016-12-21T09:52:03.013Z,425
2016-12-21T09:53:12.863Z,435
2016-12-21T09:54:22.339Z,435
2016-12-21T09:55:32.208Z,425
2016-12-21T09:56:42.063Z,400
2016-12-21T09:57:51.555Z,410
2016-12-21T09:59:01.175Z,440
2016-12-21T10:00:11.004Z,455
2016-12-21T10:01:20.465Z,455
2016-12-21T10:02:29.977Z,475
2016-12-21T10:03:39.802Z,515
2016-12-21T10:04:49.346Z,585
2016-12-21T10:05:58.862Z,600
2016-12-21T10:07:08.134Z,570
2016-12-21T10:08:17.989Z,560
2016-12-21T10:09:27.496Z,560
2016-12-21T10:10:37.014Z,520
2016-12-21T10:11:46.855Z,830
2016-12-21T10:12:56.325Z,1245
2016-12-21T10:14:05.872Z,1380
2016-12-21T10:15:15.387Z,1375
2016-12-21T10:16:25.242Z,1340
2016-12-21T10:17:35.077Z,1280
2016-12-21T10:18:44.887Z,1340
2016-12-21T10:19:54.780Z,1330
2016-12-21T10:21:04.601Z,1315
2016-12-21T10:22:13.777Z,1300
2016-12-21T10:23:23.663Z,1350
2016-12-21T10:24:33.510Z,1425
2016-12-21T10:25:43.081Z,1420
2016-12-21T10:26:52.865Z,1375
2016-12-21T10:28:02.077Z,1295
2016-12-21T10:29:11.679Z,1290
2016-12-21T10:30:21.474Z,1310
2016-12-21T10:31:31.050Z,1295
2016-12-21T10:32:40.853Z,1305
2016-12-21T10:33:50.349Z,1295
2016-12-21T10:34:59.913Z,1260
2016-12-21T10:36:09.424Z,1285
2016-12-21T10:37:18.911Z,1360
2016-12-21T10:38:28.793Z,1420
2016-12-21T10:39:38.657Z,1415
2016-12-21T10:40:48.452Z,1435
2016-12-21T10:41:57.927Z,1405
2016-12-21T10:43:07.522Z,1425
2016-12-21T10:44:17.346Z,1465
2016-12-21T10:45:27.167Z,1180
2016-12-21T10:46:36.657Z,830
2016-12-21T10:47:45.853Z,770
2016-12-21T10:48:55.698Z,720
2016-12-21T10:50:05.202Z,705
2016-12-21T10:51:15.021Z,700
2016-12-21T10:52:24.885Z,725
2016-12-21T10:53:34.723Z,1055
2016-12-21T10:54:44.581Z,1380
2016-12-21T10:55:54.444Z,1380
2016-12-21T10:57:03.946Z,1480
2016-12-21T10:58:13.759Z,1470
2016-12-21T10:59:23.241Z,1490
2016-12-21T11:00:32.109Z,1550
2016-12-21T11:01:41.619Z,1615
2016-12-21T11:02:51.411Z,1700
2016-12-21T11:04:00.995Z,1715
2016-12-21T11:05:10.782Z,1620
2016-12-21T11:06:20.610Z,1590
2016-12-21T11:07:30.409Z,1565
2016-12-21T11:08:40.236Z,1530
2016-12-21T11:09:49.754Z,1395
2016-12-21T11:10:59.619Z,1330
2016-12-21T11:12:09.471Z,1275
2016-12-21T11:13:18.949Z,1280
2016-12-21T11:14:28.762Z,1295
2016-12-21T11:15:38.311Z,1040
2016-12-21T11:16:48.149Z,1095
2016-12-21T11:17:57.655Z,1030
2016-12-21T11:19:07.198Z,950
2016-12-21T11:20:17.005Z,855
2016-12-21T11:21:26.865Z,790
2016-12-21T11:22:36.665Z,730
2016-12-21T11:23:46.193Z,700
2016-12-21T11:24:55.703Z,705
2016-12-21T11:26:05.229Z,675
2016-12-21T11:27:14.754Z,650
2016-12-21T11:28:24.575Z,615
2016-12-21T11:29:34.137Z,595
2016-12-21T11:30:43.937Z,585
2016-12-21T11:31:53.734Z,555
2016-12-21T11:33:03.560Z,490
2016-12-21T11:34:13.378Z,470
2016-12-21T11:35:22.586Z,550
2016-12-21T11:36:32.403Z,555
2016-12-21T11:37:41.890Z,540
2016-12-21T11:38:51.450Z,530
2016-12-21T11:40:01.162Z,525
2016-12-21T11:41:11.056Z,525
2016-12-21T11:42:20.929Z,530
2016-12-21T11:43:30.776Z,530
2016-12-21T11:44:40.335Z,525
2016-12-21T11:45:50.178Z,525
2016-12-21T11:47:00.069Z,520
2016-12-21T11:48:09.869Z,520
2016-12-21T11:49:19.685Z,505
2016-12-21T11:50:29.523Z,515
2016-12-21T11:51:39.027Z,520
2016-12-21T11:52:48.855Z,495
2016-12-21T11:53:58.362Z,500
2016-12-21T11:55:07.890Z,500
2016-12-21T11:56:17.692Z,480
2016-12-21T11:57:27.183Z,485
2016-12-21T11:58:36.998Z,490
2016-12-21T11:59:46.226Z,485
2016-12-21T12:00:56.036Z,490
2016-12-21T12:02:05.519Z,490
2016-12-21T12:03:15.080Z,490
2016-12-21T12:04:24.868Z,495
2016-12-21T12:05:34.700Z,500
2016-12-21T12:06:44.504Z,505
2016-12-21T12:07:54.113Z,500
2016-12-21T12:09:03.298Z,500
2016-12-21T12:10:13.138Z,495
2016-12-21T12:11:22.950Z,495
2016-12-21T12:12:32.765Z,480
2016-12-21T12:13:42.558Z,470
2016-12-21T12:14:52.067Z,470
2016-12-21T12:16:01.878Z,480
2016-12-21T12:17:11.693Z,495
2016-12-21T12:18:21.572Z,485
2016-12-21T12:19:31.371Z,480
2016-12-21T12:20:40.890Z,470
2016-12-21T12:21:50.769Z,470
2016-12-21T12:23:00.692Z,450
2016-12-21T12:24:10.490Z,445
2016-12-21T12:25:51.807Z,445
2016-12-21T12:27:01.642Z,440
2016-12-21T12:28:11.470Z,430
2016-12-21T12:29:21.325Z,415
2016-12-21T12:30:31.130Z,405
2016-12-21T12:31:40.694Z,425
2016-12-21T12:32:50.675Z,435
2016-12-21T12:34:00.168Z,430
2016-12-21T12:35:09.399Z,435
2016-12-21T12:36:18.613Z,440
2016-12-21T12:37:28.113Z,440
2016-12-21T12:38:37.590Z,440
2016-12-21T12:39:47.385Z,435
2016-12-21T12:40:56.896Z,440
2016-12-21T12:42:06.726Z,435
2016-12-21T12:43:16.521Z,425
2016-12-21T12:44:25.428Z,415
2016-12-21T12:45:35.218Z,405
2016-12-21T12:46:45.069Z,405
2016-12-21T12:47:55.523Z,400
2016-12-21T12:49:05.349Z,385
2016-12-21T12:50:14.986Z,375
2016-12-21T12:51:24.798Z,390
2016-12-21T12:52:34.303Z,385
2016-12-21T12:53:44.199Z,380
2016-12-21T12:54:53.435Z,370
2016-12-21T12:56:03.257Z,365
2016-12-21T12:57:13.077Z,360
2016-12-21T12:58:22.250Z,350
2016-12-21T12:59:31.444Z,355
2016-12-21T13:00:41.375Z,360
2016-12-21T13:01:50.545Z,345
2016-12-21T13:03:00.357Z,335
2016-12-21T13:04:10.247Z,335
2016-12-21T13:05:20.114Z,335
2016-12-21T13:06:29.349Z,335
2016-12-21T13:07:39.193Z,335
2016-12-21T13:08:48.684Z,335
2016-12-21T13:09:58.205Z,335
2016-12-21T13:11:07.688Z,335
2016-12-21T13:12:17.176Z,335
2016-12-21T13:13:26.659Z,325
2016-12-21T13:14:36.461Z,320
2016-12-21T13:15:45.641Z,315
2016-12-21T13:16:54.833Z,310
2016-12-21T13:18:04.659Z,305
2016-12-21T13:19:13.841Z,300
2016-12-21T13:20:23.411Z,295
2016-12-21T13:21:33.215Z,295
2016-12-21T13:22:43.007Z,285
2016-12-21T13:23:52.491Z,285
2016-12-21T13:25:02.354Z,290
2016-12-21T13:26:12.200Z,290
2016-12-21T13:27:21.995Z,285
2016-12-21T13:28:31.816Z,280
2016-12-21T13:29:41.624Z,275
2016-12-21T13:30:51.412Z,270
2016-12-21T13:32:00.584Z,270
2016-12-21T13:33:10.408Z,265
2016-12-21T13:34:19.582Z,265
2016-12-21T13:35:29.399Z,260
2016-12-21T13:36:39.194Z,255
2016-12-21T13:37:48.694Z,245
2016-12-21T13:38:58.518Z,245
2016-12-21T13:40:08.033Z,240
2016-12-21T13:41:17.538Z,240
2016-12-21T13:42:27.048Z,235
2016-12-21T13:43:36.923Z,235
2016-12-21T13:44:46.728Z,235
2016-12-21T13:45:56.231Z,230
2016-12-21T13:47:06.032Z,230
2016-12-21T13:48:15.548Z,225
2016-12-21T13:49:25.023Z,225
2016-12-21T13:50:34.555Z,220
2016-12-21T13:51:44.378Z,220
2016-12-21T13:52:53.601Z,215
2016-12-21T13:54:03.418Z,210
2016-12-21T13:55:12.620Z,205
2016-12-21T13:56:22.449Z,205
2016-12-21T13:57:32.234Z,200
2016-12-21T13:58:42.074Z,195
2016-12-21T13:59:51.922Z,195
2016-12-21T14:01:01.434Z,195
2016-12-21T14:02:10.949Z,180
2016-12-21T14:03:20.429Z,175
2016-12-21T14:04:30.226Z,175
2016-12-21T14:05:40.083Z,165
2016-12-21T14:06:49.590Z,160
2016-12-21T14:07:59.442Z,155
2016-12-21T14:09:08.921Z,155
2016-12-21T14:10:18.095Z,150
2016-12-21T14:11:27.916Z,145
2016-12-21T14:12:37.695Z,145
2016-12-21T14:13:47.194Z,140
2016-12-21T14:14:56.989Z,135
2016-12-21T14:16:06.821Z,135
2016-12-21T14:17:16.624Z,130
2016-12-21T14:18:26.134Z,125
2016-12-21T14:19:35.628Z,120
2016-12-21T14:20:44.924Z,115
2016-12-21T14:21:54.768Z,115
2016-12-21T14:23:04.244Z,110
2016-12-21T14:24:13.723Z,110
2016-12-21T14:25:23.557Z,105
2016-12-21T14:26:33.040Z,105
2016-12-21T14:27:42.867Z,100
2016-12-21T14:28:52.344Z,95
2016-12-21T14:30:01.839Z,95
2016-12-21T14:31:11.680Z,90
2016-12-21T14:32:21.499Z,90
2016-12-21T14:33:31.292Z,85
2016-12-21T14:34:40.512Z,80
2016-12-21T14:35:50.307Z,75
2016-12-21T14:36:59.797Z,75
2016-12-21T14:38:09.441Z,70
2016-12-21T14:39:18.922Z,70
2016-12-21T14:40:28.741Z,65
2016-12-21T14:41:38.572Z,60
2016-12-21T14:42:47.794Z,60
2016-12-21T14:43:57.052Z,55
2016-12-21T14:45:06.530Z,55
2016-12-21T14:46:16.356Z,50
2016-12-21T14:47:25.815Z,50
2016-12-21T14:48:35.383Z,45
2016-12-21T14:49:44.269Z,45
2016-12-21T14:50:54.051Z,40
2016-12-21T14:52:02.943Z,40
2016-12-21T14:53:12.470Z,35
2016-12-21T14:54:21.972Z,35
2016-12-21T14:55:31.925Z,30
2016-12-21T14:56:41.856Z,30
2016-12-21T14:57:51.659Z,25
2016-12-21T14:59:01.497Z,25
2016-12-21T15:00:11.295Z,25
2016-12-21T15:01:21.122Z,20
2016-12-21T15:02:30.910Z,20
2016-12-21T15:03:40.741Z,20
2016-12-21T15:04:50.670Z,15
2016-12-21T15:06:00.537Z,15
2016-12-21T15:07:10.054Z,15
2016-12-21T15:08:19.283Z,15
2016-12-21T15:09:28.457Z,10
2016-12-21T15:10:38.287Z,10
2016-12-21T15:11:47.781Z,10
2016-12-21T15:12:57.278Z,10
2016-12-21T15:14:06.777Z,5
2016-12-21T15:15:16.280Z,5
2016-12-21T15:16:25.791Z,5
2016-12-21T15:17:35.584Z,5
2016-12-21T15:18:45.062Z,5
2016-12-21T15:19:54.594Z,5
2016-12-21T15:21:04.385Z,0
2016-12-21T15:22:14.181Z,0
2016-12-21T15:23:24.006Z,0
2016-12-21T15:24:33.551Z,0
2016-12-21T15:25:43.365Z,0
2016-12-21T15:26:52.585Z,0
2016-12-21T15:28:02.434Z,0
2016-12-21T15:29:12.352Z,0
2016-12-21T15:30:21.886Z,0
2016-12-21T15:31:31.423Z,0
2016-12-21T15:32:41.228Z,0
2016-12-21T15:33:50.730Z,0
2016-12-21T15:35:00.239Z,0
2016-12-21T15:36:10.060Z,0
2016-12-21T15:37:19.241Z,0
2016-12-21T15:38:29.035Z,0
2016-12-21T15:39:38.231Z,0
2016-12-21T15:40:47.714Z,0
2016-12-21T15:41:56.892Z,0
2016-12-21T15:43:06.218Z,0
2016-12-21T15:44:15.391Z,0
2016-12-21T15:45:25.182Z,0
2016-12-21T15:46:35.002Z,0
2016-12-21T15:47:44.474Z,0
2016-12-21T15:48:54.335Z,0
2016-12-21T15:50:03.554Z,0
2016-12-21T15:51:13.360Z,0
2016-12-21T15:52:23.168Z,0
2016-12-21T15:53:33.063Z,0
2016-12-21T15:54:42.899Z,0
2016-12-21T15:55:52.772Z,0
2016-12-21T15:57:02.597Z,0
2016-12-21T15:58:12.127Z,0
2016-12-21T15:59:21.040Z,0
2016-12-21T16:00:30.531Z,0
2016-12-21T16:01:40.316Z,0
2016-12-21T16:02:49.516Z,0
2016-12-21T16:03:59.292Z,0
2016-12-21T16:05:09.124Z,0
2016-12-21T16:06:18.638Z,0
2016-12-21T16:07:28.497Z,0
2016-12-21T16:08:38.293Z,0
2016-12-21T16:09:47.779Z,0
2016-12-21T16:10:57.264Z,0
2016-12-21T16:12:07.165Z,0
2016-12-21T16:13:16.649Z,0
2016-12-21T16:14:26.485Z,0
2016-12-21T16:15:36.323Z,0
2016-12-21T16:16:46.213Z,0
2016-12-21T16:17:55.707Z,0
2016-12-21T16:19:05.500Z,0
2016-12-21T16:20:15.000Z,0
2016-12-21T16:21:24.474Z,0
2016-12-21T16:22:34.263Z,0
2016-12-21T16:23:44.160Z,0
2016-12-21T16:24:53.963Z,0
2016-12-21T16:26:26.785Z,0
2016-12-21T16:27:36.801Z,0
2016-12-21T16:28:46.516Z,0
2016-12-21T16:29:56.351Z,0
2016-12-21T16:31:06.146Z,0
2016-12-21T16:32:15.952Z,0
2016-12-21T16:33:25.481Z,0
2016-12-21T16:34:35.398Z,0
2016-12-21T16:35:44.644Z,0